Time;durP1;ratioP1;P1;durP2;ratioP2;P2;SDS_P1;SDS_P2;PMS_P1;PMS_P2;Temp;Humidity;BMP_temperature;BMP_pressure;BME280_temperature;BME280_humidity;BME280_pressure;Samples;Min_cycle;Max_cycle;Signal;HPM_P1;HPM_P2
2023/07/18 00:00:07;;;;;;;1.40;1.30;;;24.50;44.70;;;;;;4984396;28;20618;-64
2023/07/18 00:02:35;;;;;;;1.20;1.10;;;24.40;44.60;;;;;;4974491;28;20450;-62
2023/07/18 00:05:00;;;;;;;1.20;1.10;;;24.40;44.70;;;;;;4974954;28;20791;-64
2023/07/18 00:07:26;;;;;;;1.10;1.00;;;24.50;44.70;;;;;;4977982;28;20457;-62
2023/07/18 00:09:52;;;;;;;1.57;1.47;;;24.50;44.70;;;;;;4989387;28;20228;-62
2023/07/18 00:12:17;;;;;;;1.30;1.20;;;24.40;44.60;;;;;;4976048;28;20450;-63
2023/07/18 00:14:43;;;;;;;1.23;1.13;;;24.40;44.70;;;;;;4975073;28;20238;-63
2023/07/18 00:17:08;;;;;;;1.10;1.00;;;24.40;44.70;;;;;;4974870;28;20230;-63
2023/07/18 00:19:34;;;;;;;1.20;1.10;;;24.50;44.70;;;;;;4973807;28;20240;-62
2023/07/18 00:21:59;;;;;;;1.37;1.27;;;24.40;44.70;;;;;;4977256;28;20302;-62
2023/07/18 00:24:25;;;;;;;1.20;1.10;;;24.40;44.70;;;;;;4978021;28;20228;-64
2023/07/18 00:26:51;;;;;;;1.30;1.20;;;24.50;44.70;;;;;;4973996;28;20319;-62
2023/07/18 00:29:17;;;;;;;1.33;1.23;;;24.50;44.90;;;;;;4972883;28;20224;-62
2023/07/18 00:31:42;;;;;;;1.30;1.20;;;24.50;44.80;;;;;;4988533;28;20238;-63
2023/07/18 00:34:08;;;;;;;1.20;1.10;;;24.50;44.70;;;;;;4976874;28;20263;-65
2023/07/18 00:36:33;;;;;;;1.23;1.13;;;24.50;44.80;;;;;;4986493;28;20652;-62
2023/07/18 00:38:59;;;;;;;1.20;1.10;;;24.50;44.80;;;;;;4992279;28;20646;-63
2023/07/18 00:41:24;;;;;;;1.10;1.00;;;24.40;44.70;;;;;;4992102;28;20232;-63
2023/07/18 00:43:50;;;;;;;1.10;1.00;;;24.40;44.70;;;;;;4978514;28;20705;-63
2023/07/18 00:46:16;;;;;;;1.20;1.10;;;24.40;44.70;;;;;;4976577;28;20227;-63
2023/07/18 00:48:41;;;;;;;1.20;1.10;;;24.50;44.80;;;;;;4972650;28;20645;-64
2023/07/18 00:51:07;;;;;;;1.10;1.00;;;24.40;44.80;;;;;;4980896;28;20462;-64
2023/07/18 00:53:35;;;;;;;1.17;1.07;;;24.40;44.70;;;;;;4994943;28;20216;-62
2023/07/18 00:56:01;;;;;;;1.20;1.10;;;24.40;44.70;;;;;;4984880;28;20223;-62
2023/07/18 00:58:28;;;;;;;1.07;1.00;;;24.40;44.70;;;;;;4992492;28;20558;-63
2023/07/18 01:00:54;;;;;;;1.30;1.20;;;24.40;44.70;;;;;;4992490;28;20315;-62
2023/07/18 01:03:20;;;;;;;1.30;1.20;;;24.40;44.70;;;;;;4995679;28;20836;-62
2023/07/18 01:05:45;;;;;;;0.90;0.90;;;24.40;44.70;;;;;;4992803;28;20232;-63
2023/07/18 01:08:11;;;;;;;1.20;1.10;;;24.40;44.80;;;;;;4996728;28;20274;-63
2023/07/18 01:10:38;;;;;;;1.27;1.17;;;24.40;44.80;;;;;;4992747;28;20294;-62
2023/07/18 01:13:04;;;;;;;1.20;1.10;;;24.40;44.80;;;;;;4985398;28;20227;-62
2023/07/18 01:15:34;;;;;;;2.90;1.10;;;24.40;44.70;;;;;;4976688;28;20817;-62
2023/07/18 01:18:05;;;;;;;1.10;1.00;;;24.40;44.80;;;;;;4980139;28;20239;-62
2023/07/18 01:20:33;;;;;;;1.27;1.17;;;24.40;44.80;;;;;;4990966;28;20477;-63
2023/07/18 01:23:00;;;;;;;1.33;1.23;;;24.40;44.80;;;;;;4990022;28;20453;-63
2023/07/18 01:25:27;;;;;;;1.13;1.03;;;24.40;44.80;;;;;;4980859;28;20464;-62
2023/07/18 01:27:55;;;;;;;1.30;1.20;;;24.40;44.80;;;;;;4989338;28;20794;-63
2023/07/18 01:30:24;;;;;;;1.20;1.10;;;24.40;44.80;;;;;;4971861;28;20470;-62
2023/07/18 01:32:50;;;;;;;1.30;1.20;;;24.40;44.80;;;;;;4975812;28;20494;-63
2023/07/18 01:35:20;;;;;;;1.33;1.23;;;24.40;44.80;;;;;;4981326;28;20466;-63
2023/07/18 01:37:47;;;;;;;1.50;1.40;;;24.40;44.80;;;;;;4974270;28;20470;-62
2023/07/18 01:40:15;;;;;;;1.40;1.30;;;24.40;44.80;;;;;;4974294;28;20482;-62
2023/07/18 01:42:42;;;;;;;1.10;1.00;;;24.40;44.80;;;;;;4987440;28;20552;-63
2023/07/18 01:45:09;;;;;;;1.30;1.20;;;24.40;44.80;;;;;;4973793;28;20534;-62
2023/07/18 01:47:36;;;;;;;1.20;1.10;;;24.40;45.60;;;;;;4986904;28;20992;-63
2023/07/18 01:50:04;;;;;;;1.80;1.60;;;24.40;44.80;;;;;;4981775;28;20536;-62
2023/07/18 01:52:31;;;;;;;1.50;1.40;;;24.40;44.80;;;;;;4993027;28;20523;-62
2023/07/18 01:55:00;;;;;;;1.30;1.20;;;24.40;44.80;;;;;;4989342;28;20544;-63
2023/07/18 01:57:30;;;;;;;1.23;1.13;;;24.40;44.80;;;;;;4990772;28;20453;-63
2023/07/18 01:59:59;;;;;;;1.10;1.00;;;24.40;44.80;;;;;;4991722;28;20474;-62
2023/07/18 02:02:25;;;;;;;1.30;1.20;;;24.40;44.80;;;;;;4978426;28;20922;-63
2023/07/18 02:04:50;;;;;;;1.70;1.40;;;24.40;44.80;;;;;;4971497;28;20467;-63
2023/07/18 02:07:16;;;;;;;1.30;1.20;;;24.40;44.80;;;;;;4975146;28;20224;-62
2023/07/18 02:09:41;;;;;;;1.30;1.20;;;24.40;44.80;;;;;;4971840;28;20998;-65
2023/07/18 02:12:08;;;;;;;1.20;1.10;;;24.40;44.90;;;;;;4976813;28;20997;-64
2023/07/18 02:14:36;;;;;;;1.20;1.10;;;24.40;44.90;;;;;;4972609;28;20255;-63
2023/07/18 02:17:02;;;;;;;1.20;1.10;;;24.40;44.90;;;;;;4971828;28;20821;-62
2023/07/18 02:19:28;;;;;;;1.13;1.03;;;24.40;44.80;;;;;;4970953;28;20481;-62
2023/07/18 02:21:53;;;;;;;1.27;1.17;;;24.40;44.80;;;;;;4969947;28;20454;-62
2023/07/18 02:24:19;;;;;;;1.30;1.20;;;24.40;44.80;;;;;;4984926;28;20948;-62
2023/07/18 02:26:44;;;;;;;1.30;1.20;;;24.40;44.80;;;;;;4987541;28;20676;-62
2023/07/18 02:29:10;;;;;;;1.17;1.07;;;24.40;44.90;;;;;;4979910;28;20745;-63
2023/07/18 02:31:35;;;;;;;1.23;1.13;;;24.40;44.90;;;;;;4975215;28;20234;-62
2023/07/18 02:34:01;;;;;;;1.40;1.30;;;24.40;44.80;;;;;;4978977;28;20235;-62
2023/07/18 02:36:28;;;;;;;1.23;1.13;;;24.40;44.90;;;;;;4995024;28;20232;-63
2023/07/18 02:38:53;;;;;;;1.40;1.30;;;24.40;44.80;;;;;;4985662;28;20232;-62
2023/07/18 02:41:19;;;;;;;1.30;1.20;;;24.40;44.80;;;;;;4975842;28;20465;-63
2023/07/18 02:43:44;;;;;;;1.20;1.00;;;24.40;44.80;;;;;;4979095;28;20225;-65
2023/07/18 02:46:11;;;;;;;1.10;1.00;;;24.40;44.90;;;;;;4976939;28;20228;-63
2023/07/18 02:48:36;;;;;;;1.23;1.13;;;24.40;44.90;;;;;;4982114;28;20219;-62
2023/07/18 02:51:02;;;;;;;1.30;1.20;;;24.40;44.90;;;;;;4993880;28;20535;-62
2023/07/18 02:53:28;;;;;;;1.30;1.20;;;24.40;44.90;;;;;;4996093;28;20806;-62
2023/07/18 02:55:54;;;;;;;1.07;1.00;;;24.40;44.90;;;;;;4981343;28;20237;-62
2023/07/18 02:58:19;;;;;;;1.13;1.03;;;24.40;44.90;;;;;;4979585;28;20251;-63
2023/07/18 03:00:45;;;;;;;1.50;1.30;;;24.40;44.90;;;;;;4976707;28;20490;-63
2023/07/18 03:03:12;;;;;;;1.50;1.40;;;24.40;44.90;;;;;;4976588;28;20256;-63
2023/07/18 03:05:38;;;;;;;1.40;1.30;;;24.40;44.90;;;;;;4985957;28;20452;-63
2023/07/18 03:08:04;;;;;;;1.50;1.40;;;24.40;45.70;;;;;;4996414;28;20452;-63
2023/07/18 03:10:30;;;;;;;1.30;1.20;;;24.40;44.90;;;;;;4996529;28;20227;-63
2023/07/18 03:12:55;;;;;;;1.40;1.30;;;24.40;45.00;;;;;;4996675;28;20557;-63
2023/07/18 03:15:21;;;;;;;1.40;1.30;;;24.40;44.90;;;;;;4991025;28;20695;-63
2023/07/18 03:17:47;;;;;;;1.40;1.30;;;24.40;44.90;;;;;;4997642;28;20220;-62
2023/07/18 03:20:19;;;;;;;1.37;1.27;;;24.40;44.90;;;;;;4995501;28;20581;-62
2023/07/18 03:22:49;;;;;;;1.10;1.03;;;24.40;45.00;;;;;;4994062;28;20227;-62
2023/07/18 03:25:17;;;;;;;1.30;1.20;;;24.40;44.90;;;;;;4997581;28;20571;-64
2023/07/18 03:27:43;;;;;;;1.30;1.20;;;24.40;45.00;;;;;;4998713;28;20567;-64
2023/07/18 03:30:11;;;;;;;1.30;1.20;;;24.40;44.90;;;;;;5023143;28;20867;-64
2023/07/18 03:32:38;;;;;;;1.30;1.20;;;24.40;44.90;;;;;;4990049;28;20227;-63
2023/07/18 03:35:06;;;;;;;1.33;1.23;;;24.40;45.70;;;;;;4987415;28;20542;-62
2023/07/18 03:37:32;;;;;;;1.50;1.40;;;24.40;44.90;;;;;;4976659;28;21065;-62
2023/07/18 03:39:57;;;;;;;1.30;1.20;;;24.40;44.90;;;;;;4976868;28;20462;-64
2023/07/18 03:42:23;;;;;;;1.57;1.47;;;24.40;45.00;;;;;;4974992;28;20238;-63
2023/07/18 03:44:48;;;;;;;1.37;1.27;;;24.40;44.90;;;;;;4974886;28;20247;-62
2023/07/18 03:47:14;;;;;;;1.30;1.20;;;24.40;44.90;;;;;;4982544;28;22016;-63
2023/07/18 03:49:40;;;;;;;1.20;1.10;;;24.40;44.90;;;;;;5018786;28;20390;-63
2023/07/18 03:52:06;;;;;;;1.20;1.10;;;24.40;44.90;;;;;;4977741;28;20307;-62
2023/07/18 03:54:33;;;;;;;1.30;1.20;;;24.40;44.90;;;;;;4973601;28;20310;-63
2023/07/18 03:56:59;;;;;;;1.27;1.17;;;24.40;44.90;;;;;;4974538;28;20561;-62
2023/07/18 03:59:25;;;;;;;1.23;1.13;;;24.40;44.90;;;;;;4990254;28;21043;-64
2023/07/18 04:01:51;;;;;;;1.40;1.30;;;24.40;45.50;;;;;;4996596;28;20581;-62
2023/07/18 04:04:17;;;;;;;1.40;1.30;;;24.40;44.90;;;;;;4987511;28;20574;-62
2023/07/18 04:06:45;;;;;;;1.40;1.30;;;24.40;44.90;;;;;;4975092;28;20458;-63
2023/07/18 04:09:11;;;;;;;1.20;1.10;;;24.40;44.90;;;;;;4987269;28;20216;-63
2023/07/18 04:11:38;;;;;;;1.30;1.20;;;24.40;45.00;;;;;;4982692;28;20456;-62
2023/07/18 04:14:04;;;;;;;1.20;1.10;;;24.40;45.00;;;;;;4974897;28;20683;-62
2023/07/18 04:16:29;;;;;;;1.30;1.20;;;24.40;44.90;;;;;;4981792;28;20450;-62
2023/07/18 04:18:55;;;;;;;1.33;1.23;;;24.40;44.90;;;;;;4978428;28;20274;-63
2023/07/18 04:21:21;;;;;;;1.40;1.30;;;24.40;44.90;;;;;;4994251;28;20290;-62
2023/07/18 04:23:48;;;;;;;1.40;1.30;;;24.40;44.90;;;;;;4981301;28;20227;-62
2023/07/18 04:26:14;;;;;;;1.27;1.17;;;24.40;44.90;;;;;;4983203;28;20448;-63
2023/07/18 04:28:40;;;;;;;1.40;1.30;;;24.40;44.90;;;;;;4989185;28;20503;-63
2023/07/18 04:31:06;;;;;;;1.30;1.20;;;24.40;44.90;;;;;;4994629;28;20234;-62
2023/07/18 04:33:34;;;;;;;1.50;1.40;;;24.40;44.90;;;;;;4982116;28;20450;-62
2023/07/18 04:36:00;;;;;;;1.30;1.20;;;24.40;45.00;;;;;;5017855;28;20971;-63
2023/07/18 04:38:26;;;;;;;1.37;1.20;;;24.40;45.00;;;;;;4976232;28;20473;-62
2023/07/18 04:40:51;;;;;;;1.30;1.20;;;24.40;45.00;;;;;;4973501;28;20478;-62
2023/07/18 04:43:17;;;;;;;1.27;1.17;;;24.40;45.00;;;;;;4984701;28;20232;-62
2023/07/18 04:45:44;;;;;;;1.10;1.00;;;24.40;44.90;;;;;;4973758;28;20556;-62
2023/07/18 04:48:14;;;;;;;1.17;1.07;;;24.40;44.80;;;;;;4991768;28;20242;-63
2023/07/18 04:50:44;;;;;;;1.27;1.17;;;24.40;44.90;;;;;;4981892;28;20816;-63
2023/07/18 04:53:10;;;;;;;1.10;1.00;;;24.40;44.80;;;;;;4975931;28;20476;-62
2023/07/18 04:55:37;;;;;;;1.20;1.10;;;24.40;44.90;;;;;;4974182;28;20560;-62
2023/07/18 04:58:04;;;;;;;1.17;1.07;;;24.40;44.80;;;;;;4972018;28;20244;-62
2023/07/18 05:00:30;;;;;;;1.50;1.40;;;24.40;44.80;;;;;;4972889;28;20463;-62
2023/07/18 05:02:57;;;;;;;1.10;1.00;;;24.40;44.80;;;;;;4988380;28;20470;-62
2023/07/18 05:05:24;;;;;;;1.30;1.20;;;24.40;44.80;;;;;;4973135;28;20457;-62
2023/07/18 05:07:49;;;;;;;1.40;1.30;;;24.40;44.80;;;;;;4984813;28;20448;-63
2023/07/18 05:10:15;;;;;;;1.10;1.00;;;24.40;44.80;;;;;;4992525;28;20468;-62
2023/07/18 05:12:40;;;;;;;1.30;1.20;;;24.40;44.70;;;;;;4994779;28;20224;-63
2023/07/18 05:15:07;;;;;;;1.80;1.40;;;24.40;44.70;;;;;;4992657;28;20246;-64
2023/07/18 05:17:32;;;;;;;1.20;1.10;;;24.40;44.70;;;;;;4993926;28;20230;-62
2023/07/18 05:19:58;;;;;;;1.43;1.33;;;24.40;44.70;;;;;;4992007;28;23805;-64
2023/07/18 05:22:23;;;;;;;1.37;1.27;;;24.40;44.70;;;;;;4995517;28;20224;-63
2023/07/18 05:24:49;;;;;;;1.40;1.30;;;24.50;44.80;;;;;;4980400;28;20227;-64
2023/07/18 05:27:14;;;;;;;1.30;1.20;;;24.40;44.70;;;;;;4975966;28;20225;-62
2023/07/18 05:29:40;;;;;;;1.40;1.30;;;24.50;44.70;;;;;;4973843;28;20236;-62
2023/07/18 05:32:06;;;;;;;1.40;1.30;;;24.40;44.70;;;;;;4995878;28;20238;-62
2023/07/18 05:34:33;;;;;;;1.50;1.40;;;24.40;44.70;;;;;;4989725;28;20285;-63
2023/07/18 05:37:00;;;;;;;1.20;1.10;;;24.40;44.70;;;;;;4992985;28;21578;-62
2023/07/18 05:39:27;;;;;;;1.33;1.23;;;24.40;44.70;;;;;;4993020;28;20579;-62
2023/07/18 05:41:54;;;;;;;1.40;1.30;;;24.50;44.70;;;;;;4992747;28;20912;-62
2023/07/18 05:44:19;;;;;;;1.57;1.10;;;24.50;44.70;;;;;;4989141;28;20457;-63
2023/07/18 05:46:46;;;;;;;1.40;1.30;;;24.40;44.70;;;;;;4975151;28;20458;-62
2023/07/18 05:49:11;;;;;;;1.20;1.10;;;24.50;44.70;;;;;;4980754;28;20219;-62
2023/07/18 05:51:37;;;;;;;1.37;1.27;;;24.40;44.70;;;;;;4974904;28;20957;-62
2023/07/18 05:54:04;;;;;;;1.33;1.23;;;24.50;44.70;;;;;;4972982;28;20221;-63
2023/07/18 05:56:30;;;;;;;1.20;1.10;;;24.50;44.80;;;;;;4971588;28;20228;-62
2023/07/18 05:58:55;;;;;;;1.27;1.17;;;24.50;44.70;;;;;;4975439;28;20521;-64
2023/07/18 06:01:21;;;;;;;1.47;1.37;;;24.40;44.70;;;;;;4970952;28;20470;-62
2023/07/18 06:03:47;;;;;;;1.43;1.33;;;24.50;44.70;;;;;;4989948;28;20223;-63
2023/07/18 06:06:13;;;;;;;1.37;1.27;;;24.50;44.80;;;;;;4990268;28;20454;-62
2023/07/18 06:08:39;;;;;;;1.77;1.33;;;24.50;44.80;;;;;;4990445;28;20259;-64
2023/07/18 06:11:04;;;;;;;1.40;1.30;;;24.50;44.80;;;;;;4990465;28;20321;-62
2023/07/18 06:13:30;;;;;;;1.37;1.27;;;24.50;44.70;;;;;;4993388;28;20568;-63
2023/07/18 06:15:55;;;;;;;1.27;1.17;;;24.50;44.70;;;;;;4990141;28;20294;-62
2023/07/18 06:18:21;;;;;;;1.20;1.10;;;24.50;44.70;;;;;;4994859;28;20227;-64
2023/07/18 06:20:46;;;;;;;1.43;1.33;;;24.50;44.80;;;;;;4985573;28;20241;-63
2023/07/18 06:23:12;;;;;;;1.40;1.30;;;24.50;44.70;;;;;;4984994;28;20211;-63
2023/07/18 06:25:37;;;;;;;1.47;1.37;;;24.50;44.70;;;;;;4973930;28;20235;-62
2023/07/18 06:28:04;;;;;;;1.47;1.37;;;24.50;44.80;;;;;;4989724;28;20245;-62
2023/07/18 06:30:30;;;;;;;1.37;1.27;;;24.50;44.70;;;;;;4990637;28;20224;-62
2023/07/18 06:32:55;;;;;;;1.33;1.23;;;24.50;44.70;;;;;;4994122;28;20884;-62
2023/07/18 06:35:21;;;;;;;1.30;1.20;;;24.50;44.70;;;;;;4990772;28;20234;-62
2023/07/18 06:37:46;;;;;;;1.40;1.30;;;24.50;44.70;;;;;;4992793;28;20344;-62
2023/07/18 06:40:12;;;;;;;1.30;1.20;;;24.50;44.70;;;;;;4990456;28;20242;-63
2023/07/18 06:42:39;;;;;;;1.50;1.40;;;24.50;44.70;;;;;;4994873;28;20254;-63
2023/07/18 06:45:07;;;;;;;1.40;1.30;;;24.50;44.70;;;;;;4991764;28;20329;-62
2023/07/18 06:47:33;;;;;;;1.30;1.20;;;24.50;44.70;;;;;;4994309;28;20469;-62
2023/07/18 06:49:58;;;;;;;1.30;1.20;;;24.50;44.70;;;;;;4990084;28;20445;-65
2023/07/18 06:52:24;;;;;;;1.13;1.07;;;24.50;44.70;;;;;;4988194;28;20257;-62
2023/07/18 06:54:49;;;;;;;1.20;1.10;;;24.50;44.70;;;;;;4973489;28;20302;-62
2023/07/18 06:57:15;;;;;;;1.30;1.20;;;24.50;44.70;;;;;;4971930;28;20820;-62
2023/07/18 06:59:41;;;;;;;1.30;1.20;;;24.50;44.70;;;;;;4973760;28;20337;-63
2023/07/18 07:02:10;;;;;;;1.30;1.20;;;24.50;44.70;;;;;;4983106;28;20299;-63
2023/07/18 07:04:36;;;;;;;2.27;1.30;;;24.50;44.70;;;;;;4971412;28;20465;-62
2023/07/18 07:07:03;;;;;;;1.30;1.20;;;24.50;44.60;;;;;;4990413;28;20463;-62
2023/07/18 07:09:29;;;;;;;1.33;1.23;;;24.50;44.70;;;;;;4992275;28;20465;-62
2023/07/18 07:11:54;;;;;;;1.30;1.20;;;24.50;45.50;;;;;;4990543;28;20449;-63
2023/07/18 07:14:20;;;;;;;1.50;1.40;;;24.50;44.70;;;;;;4991636;28;20510;-62
2023/07/18 07:16:46;;;;;;;1.40;1.30;;;24.50;44.70;;;;;;4990450;28;20716;-63
2023/07/18 07:19:13;;;;;;;1.27;1.17;;;24.50;44.70;;;;;;4991522;28;20220;-62
2023/07/18 07:21:39;;;;;;;1.47;1.37;;;24.50;44.60;;;;;;4997237;28;20263;-62
2023/07/18 07:24:04;;;;;;;1.30;1.20;;;24.50;44.60;;;;;;4978686;28;20481;-63
2023/07/18 07:26:30;;;;;;;1.33;1.23;;;24.50;44.60;;;;;;4976017;28;20706;-62
2023/07/18 07:28:56;;;;;;;1.47;1.37;;;24.50;44.60;;;;;;4976189;28;20232;-63
2023/07/18 07:31:22;;;;;;;1.43;1.33;;;24.50;44.60;;;;;;4973213;28;20235;-63
2023/07/18 07:33:48;;;;;;;1.37;1.27;;;24.50;44.60;;;;;;4979098;28;20698;-62
2023/07/18 07:36:14;;;;;;;1.27;1.00;;;24.50;44.60;;;;;;4974635;28;20679;-64
2023/07/18 07:38:40;;;;;;;1.27;1.17;;;24.50;44.60;;;;;;5018687;28;20568;-63
2023/07/18 07:41:06;;;;;;;1.47;1.37;;;24.50;44.60;;;;;;4977961;28;20490;-62
2023/07/18 07:43:33;;;;;;;1.30;1.20;;;24.50;44.50;;;;;;4985386;28;20310;-63
2023/07/18 07:45:59;;;;;;;1.40;1.30;;;24.50;44.50;;;;;;4973883;28;20316;-62
2023/07/18 07:48:24;;;;;;;1.30;1.20;;;24.50;44.60;;;;;;4986426;28;20903;-63
2023/07/18 07:50:50;;;;;;;1.37;1.27;;;24.60;44.70;;;;;;4991559;28;20457;-62
2023/07/18 07:53:15;;;;;;;1.37;1.27;;;24.50;44.50;;;;;;4978615;28;20684;-63
2023/07/18 07:55:41;;;;;;;1.77;1.67;;;24.60;44.60;;;;;;4984626;28;21068;-62
2023/07/18 07:58:07;;;;;;;1.20;1.10;;;24.60;44.60;;;;;;4981282;28;20264;-62
2023/07/18 08:00:33;;;;;;;1.13;1.03;;;24.60;44.60;;;;;;4975682;28;20579;-62
2023/07/18 08:02:58;;;;;;;1.20;1.10;;;24.60;44.60;;;;;;4981433;28;20315;-62
2023/07/18 08:05:24;;;;;;;1.40;1.30;;;24.60;44.60;;;;;;4972294;28;20223;-63
2023/07/18 08:07:49;;;;;;;1.50;1.40;;;24.60;44.60;;;;;;4974907;28;20299;-62
2023/07/18 08:10:17;;;;;;;1.07;1.07;;;24.60;44.60;;;;;;4975696;28;20650;-63
2023/07/18 08:12:43;;;;;;;1.10;1.03;;;24.50;44.50;;;;;;4992810;28;20226;-63
2023/07/18 08:15:09;;;;;;;1.20;1.10;;;24.60;44.60;;;;;;4995899;28;20458;-63
2023/07/18 08:17:34;;;;;;;1.20;1.10;;;24.60;44.60;;;;;;4993263;28;20299;-63
2023/07/18 08:20:00;;;;;;;1.07;1.00;;;24.60;44.60;;;;;;4992893;28;20866;-64
2023/07/18 08:22:26;;;;;;;1.60;1.50;;;24.60;45.30;;;;;;4997265;28;20706;-62
2023/07/18 08:24:51;;;;;;;1.10;1.00;;;24.60;44.60;;;;;;4993429;28;20310;-62
2023/07/18 08:27:17;;;;;;;1.43;1.23;;;24.60;44.60;;;;;;4993515;28;20223;-63
2023/07/18 08:29:43;;;;;;;1.20;1.10;;;24.60;44.60;;;;;;4993694;28;20226;-64
2023/07/18 08:32:09;;;;;;;1.27;1.17;;;24.60;44.60;;;;;;4995283;28;20226;-63
2023/07/18 08:34:35;;;;;;;0.93;0.93;;;24.60;44.60;;;;;;4992883;28;20452;-64
2023/07/18 08:37:02;;;;;;;1.20;1.10;;;24.60;44.60;;;;;;4992528;28;20485;-62
2023/07/18 08:39:28;;;;;;;1.23;1.13;;;24.60;44.60;;;;;;4993815;28;20472;-63
2023/07/18 08:41:57;;;;;;;1.10;1.00;;;24.60;44.60;;;;;;4992162;28;20471;-63
2023/07/18 08:44:23;;;;;;;1.00;1.00;;;24.60;44.60;;;;;;4985873;28;20220;-62
2023/07/18 08:46:49;;;;;;;1.50;1.40;;;24.60;44.60;;;;;;4992463;28;20464;-63
2023/07/18 08:49:17;;;;;;;1.20;1.10;;;24.60;44.50;;;;;;4992303;28;21090;-63
2023/07/18 08:51:44;;;;;;;1.17;1.07;;;24.60;44.60;;;;;;4994832;28;20488;-63
2023/07/18 08:54:10;;;;;;;1.67;1.20;;;24.60;44.50;;;;;;4995678;28;20461;-64
2023/07/18 08:56:41;;;;;;;1.90;1.10;;;24.60;44.50;;;;;;4994028;28;21311;-63
2023/07/18 08:59:07;;;;;;;1.33;1.23;;;24.60;44.50;;;;;;4996164;28;20470;-63
2023/07/18 09:01:32;;;;;;;1.10;1.00;;;24.60;44.60;;;;;;4992840;28;20524;-63
2023/07/18 09:03:58;;;;;;;1.30;1.20;;;24.60;44.60;;;;;;4988366;28;20224;-64
2023/07/18 09:06:24;;;;;;;1.30;1.20;;;24.60;44.50;;;;;;4992181;28;20220;-62
2023/07/18 09:08:50;;;;;;;0.90;0.90;;;24.60;44.50;;;;;;4992405;28;20223;-62
2023/07/18 09:11:19;;;;;;;1.30;1.20;;;24.60;44.50;;;;;;4972178;28;20565;-62
2023/07/18 09:13:46;;;;;;;1.40;1.30;;;24.60;44.50;;;;;;4971375;28;20224;-63
2023/07/18 09:16:15;;;;;;;1.20;1.10;;;24.60;44.50;;;;;;4974851;28;20940;-62
2023/07/18 09:18:47;;;;;;;1.10;1.00;;;24.60;44.50;;;;;;4987895;28;20460;-63
2023/07/18 09:21:13;;;;;;;1.17;1.07;;;24.60;44.50;;;;;;4991721;28;20516;-63
2023/07/18 09:23:40;;;;;;;1.20;1.10;;;24.60;44.50;;;;;;5000048;28;20590;-62
2023/07/18 09:26:10;;;;;;;1.00;1.00;;;24.60;44.50;;;;;;4991373;28;20225;-64
2023/07/18 09:28:36;;;;;;;1.30;1.20;;;24.60;44.50;;;;;;4993768;28;21012;-64
2023/07/18 09:31:02;;;;;;;1.20;1.10;;;24.60;44.50;;;;;;4993551;28;20471;-63
2023/07/18 09:33:28;;;;;;;1.30;1.20;;;24.60;44.50;;;;;;4992407;28;20945;-63
2023/07/18 09:35:58;;;;;;;1.17;1.07;;;24.60;44.50;;;;;;4993111;28;20234;-62
2023/07/18 09:38:24;;;;;;;1.30;1.20;;;24.60;44.50;;;;;;4992222;28;20672;-63
2023/07/18 09:40:52;;;;;;;1.20;1.10;;;24.60;44.50;;;;;;4989939;28;20471;-62
2023/07/18 09:43:20;;;;;;;1.20;1.10;;;24.60;44.50;;;;;;4991424;28;20457;-63
2023/07/18 09:45:47;;;;;;;1.10;1.00;;;24.60;44.50;;;;;;4991043;28;20461;-62
2023/07/18 09:48:14;;;;;;;1.27;1.17;;;24.60;44.50;;;;;;4987656;28;21661;-63
2023/07/18 09:50:43;;;;;;;1.20;1.10;;;24.60;44.50;;;;;;4972684;28;20520;-62
2023/07/18 09:53:11;;;;;;;1.50;1.40;;;24.60;44.40;;;;;;5008088;28;20975;-62
2023/07/18 09:55:38;;;;;;;1.30;1.20;;;24.60;44.40;;;;;;4977711;28;20470;-63
2023/07/18 09:58:04;;;;;;;0.97;0.93;;;24.60;44.30;;;;;;4971865;28;20468;-62
2023/07/18 10:00:32;;;;;;;1.20;1.10;;;24.60;44.30;;;;;;4970484;28;20466;-63
2023/07/18 10:03:00;;;;;;;1.00;1.00;;;24.60;44.40;;;;;;5015107;28;20473;-63
2023/07/18 10:05:27;;;;;;;1.07;1.00;;;24.60;44.40;;;;;;4979741;28;20465;-63
2023/07/18 10:07:53;;;;;;;1.00;1.00;;;24.60;44.50;;;;;;4975537;28;20547;-62
2023/07/18 10:10:19;;;;;;;1.17;1.07;;;24.60;44.50;;;;;;4973353;28;20568;-63
2023/07/18 10:12:54;;;;;;;1.10;1.00;;;24.60;44.40;;;;;;4972642;28;20514;-63
2023/07/18 10:15:19;;;;;;;1.20;1.10;;;24.60;44.50;;;;;;4973995;28;20325;-63
2023/07/18 10:17:45;;;;;;;1.10;1.00;;;24.60;44.40;;;;;;4973446;28;21251;-63
2023/07/18 10:20:22;;;;;;;1.30;1.20;;;24.60;44.40;;;;;;4973147;28;20290;-62
2023/07/18 10:22:50;;;;;;;1.20;1.10;;;24.60;44.40;;;;;;4976939;28;20314;-63
2023/07/18 10:25:19;;;;;;;1.40;1.30;;;24.60;44.40;;;;;;4977653;28;20503;-62
2023/07/18 10:27:46;;;;;;;1.30;1.20;;;24.60;44.40;;;;;;4981101;28;20527;-62
2023/07/18 10:30:15;;;;;;;1.37;1.10;;;24.60;44.40;;;;;;4982799;28;20465;-62
2023/07/18 10:32:42;;;;;;;1.00;1.00;;;24.60;44.40;;;;;;4987165;28;20460;-63
2023/07/18 10:35:13;;;;;;;1.10;1.00;;;24.60;44.40;;;;;;4996251;28;20590;-62
2023/07/18 10:37:51;;;;;;;1.47;1.13;;;24.60;44.40;;;;;;4993236;28;20984;-62
2023/07/18 10:40:33;;;;;;;0.90;0.90;;;24.60;44.50;;;;;;4976813;28;21039;-63
2023/07/18 10:42:59;;;;;;;1.33;1.23;;;24.60;44.40;;;;;;4983371;28;20459;-63
2023/07/18 10:45:25;;;;;;;1.30;1.20;;;24.60;44.50;;;;;;4991389;28;20467;-62
2023/07/18 10:47:50;;;;;;;1.20;1.10;;;24.60;44.50;;;;;;4975256;28;20451;-64
2023/07/18 10:50:15;;;;;;;0.90;0.90;;;24.60;44.40;;;;;;4973577;28;20239;-63
2023/07/18 10:52:41;;;;;;;1.20;1.10;;;24.60;44.40;;;;;;4975978;28;20215;-63
2023/07/18 10:55:07;;;;;;;1.30;1.20;;;24.60;44.50;;;;;;4974638;28;20594;-63
2023/07/18 10:57:35;;;;;;;1.23;1.13;;;24.60;44.50;;;;;;4978001;28;20257;-62
2023/07/18 11:00:05;;;;;;;1.10;1.00;;;24.60;44.50;;;;;;4995565;28;20235;-64
2023/07/18 11:02:47;;;;;;;1.13;1.03;;;24.60;44.50;;;;;;4995390;28;20450;-62
2023/07/18 11:05:13;;;;;;;1.20;1.10;;;24.60;44.50;;;;;;4988973;28;20466;-63
2023/07/18 11:07:41;;;;;;;1.03;1.00;;;24.60;44.50;;;;;;4986955;28;20809;-62
2023/07/18 11:10:09;;;;;;;1.20;1.10;;;24.50;44.40;;;;;;4997243;28;20459;-62
2023/07/18 11:12:34;;;;;;;1.20;1.10;;;24.50;44.40;;;;;;4977732;28;20870;-62
2023/07/18 11:15:01;;;;;;;1.00;1.00;;;24.50;44.40;;;;;;4977361;28;20468;-62
2023/07/18 11:17:27;;;;;;;1.00;1.00;;;24.50;44.40;;;;;;4978661;28;20223;-62
2023/07/18 11:19:57;;;;;;;1.03;0.93;;;24.60;44.40;;;;;;4973675;28;20477;-62
2023/07/18 11:22:22;;;;;;;1.10;1.00;;;24.50;44.30;;;;;;4986297;28;20267;-62
2023/07/18 11:24:49;;;;;;;1.00;1.00;;;24.50;44.40;;;;;;4976010;28;20474;-64
2023/07/18 11:27:27;;;;;;;1.10;1.00;;;24.50;44.40;;;;;;4977749;28;20634;-62
2023/07/18 11:29:59;;;;;;;1.20;1.10;;;24.50;44.40;;;;;;4973700;28;21213;-63
2023/07/18 11:32:47;;;;;;;1.17;1.07;;;24.50;44.40;;;;;;4975001;28;20561;-62
2023/07/18 11:35:21;;;;;;;1.07;1.00;;;24.50;44.40;;;;;;4996158;28;20534;-64
2023/07/18 11:37:51;;;;;;;1.10;1.00;;;24.50;44.40;;;;;;4986954;28;20576;-63
2023/07/18 11:40:22;;;;;;;1.30;1.20;;;24.50;44.40;;;;;;4987987;28;20508;-62
2023/07/18 11:42:50;;;;;;;1.10;1.00;;;24.50;44.40;;;;;;4976870;28;20578;-62
2023/07/18 11:45:20;;;;;;;1.10;1.00;;;24.50;44.40;;;;;;4974447;28;20476;-64
2023/07/18 11:47:53;;;;;;;1.07;1.00;;;24.50;44.40;;;;;;4978864;28;20492;-62
2023/07/18 11:50:19;;;;;;;0.93;0.93;;;24.50;44.40;;;;;;4975653;28;20480;-63
2023/07/18 11:52:48;;;;;;;1.00;1.00;;;24.50;44.40;;;;;;4973661;28;20450;-63
2023/07/18 11:55:16;;;;;;;1.00;1.00;;;24.50;44.40;;;;;;4976696;28;20230;-63
2023/07/18 11:57:42;;;;;;;1.20;1.10;;;24.50;44.40;;;;;;4976437;28;20458;-63
2023/07/18 12:00:10;;;;;;;0.90;0.90;;;24.50;44.50;;;;;;4972562;28;20512;-62
2023/07/18 12:02:36;;;;;;;0.90;0.90;;;24.50;44.40;;;;;;4995499;28;20453;-62
2023/07/18 12:05:02;;;;;;;0.80;0.80;;;24.50;44.40;;;;;;4989542;28;20536;-63
2023/07/18 12:07:27;;;;;;;1.23;1.00;;;24.50;44.40;;;;;;4976594;28;20224;-62
2023/07/18 12:09:53;;;;;;;1.13;1.03;;;24.50;44.40;;;;;;4975731;28;20461;-62
2023/07/18 12:12:21;;;;;;;1.10;1.00;;;24.50;44.40;;;;;;4976486;28;20239;-62
2023/07/18 12:14:46;;;;;;;1.20;1.10;;;24.50;44.50;;;;;;4977629;28;20517;-63
2023/07/18 12:17:12;;;;;;;0.97;0.90;;;24.50;44.40;;;;;;4977929;28;21022;-63
2023/07/18 12:19:37;;;;;;;1.20;1.10;;;24.50;44.50;;;;;;4975795;28;20225;-62
2023/07/18 12:22:03;;;;;;;1.17;1.07;;;24.50;44.40;;;;;;4980515;28;20723;-63
2023/07/18 12:24:29;;;;;;;1.20;1.10;;;24.50;44.40;;;;;;4987970;28;20645;-62
2023/07/18 12:26:54;;;;;;;1.13;1.03;;;24.50;44.40;;;;;;4982188;28;20922;-62
2023/07/18 12:29:20;;;;;;;1.10;1.00;;;24.50;44.40;;;;;;4972799;28;20220;-63
2023/07/18 12:31:49;;;;;;;1.00;1.00;;;24.50;44.50;;;;;;4978369;28;20239;-63
2023/07/18 12:34:15;;;;;;;1.17;1.07;;;24.50;44.40;;;;;;4985703;28;20262;-62
2023/07/18 12:36:40;;;;;;;1.13;1.03;;;24.50;44.40;;;;;;4979156;28;20847;-63
2023/07/18 12:39:06;;;;;;;0.90;0.90;;;24.50;44.40;;;;;;4977183;28;20485;-64
2023/07/18 12:41:31;;;;;;;1.10;1.00;;;24.50;44.40;;;;;;4982827;28;20255;-63
2023/07/18 12:43:57;;;;;;;1.10;1.00;;;24.50;44.40;;;;;;4976985;28;20238;-62